createdAt,value
2023-04-08T00:00:57.257Z,77.70
2023-04-08T00:03:23.772Z,77.86
2023-04-08T00:05:51.091Z,78.05
2023-04-08T00:08:17.574Z,77.88
2023-04-08T00:10:44.033Z,78.14
2023-04-08T00:13:10.523Z,78.17
2023-04-08T00:15:37.557Z,78.17
2023-04-08T00:18:04.094Z,78.19
2023-04-08T00:20:30.856Z,78.30
2023-04-08T00:22:57.410Z,78.28
2023-04-08T00:25:25.391Z,78.41
2023-04-08T00:27:52.545Z,78.54
2023-04-08T00:30:19.481Z,78.41
2023-04-08T00:32:46.896Z,78.56
2023-04-08T00:35:13.896Z,78.77
2023-04-08T00:37:40.845Z,78.74
2023-04-08T00:40:07.829Z,79.08
2023-04-08T00:42:34.329Z,79.41
2023-04-08T00:45:00.930Z,79.57
2023-04-08T00:47:27.639Z,79.82
2023-04-08T00:49:54.100Z,80.05
2023-04-08T00:52:20.640Z,80.29
2023-04-08T00:54:47.136Z,80.18
2023-04-08T00:57:14.141Z,80.49
2023-04-08T00:59:41.694Z,80.87
2023-04-08T01:02:27.297Z,80.84
2023-04-08T01:05:08.205Z,81.06
2023-04-08T01:07:38.109Z,81.14
2023-04-08T01:10:14.066Z,81.20
2023-04-08T01:12:56.342Z,81.48
2023-04-08T01:15:24.965Z,81.39
2023-04-08T01:17:55.127Z,81.49
2023-04-08T01:20:24.037Z,81.69
2023-04-08T01:23:18.182Z,82.33
2023-04-08T01:25:54.232Z,83.86
2023-04-08T01:28:23.939Z,84.24
2023-04-08T01:30:51.565Z,83.85
2023-04-08T01:33:19.787Z,84.39
2023-04-08T01:35:46.719Z,84.45
2023-04-08T01:38:18.120Z,84.60
2023-04-08T01:40:46.955Z,84.73
2023-04-08T01:43:16.258Z,84.63
2023-04-08T01:45:48.136Z,84.98
2023-04-08T01:48:16.153Z,85.36
2023-04-08T01:50:44.559Z,85.20
2023-04-08T01:53:12.842Z,85.29
2023-04-08T01:55:41.178Z,85.29
2023-04-08T01:58:08.823Z,85.24
2023-04-08T02:00:36.578Z,85.85
2023-04-08T02:03:06.788Z,85.99
2023-04-08T02:05:34.713Z,86.02
2023-04-08T02:08:01.362Z,86.47
2023-04-08T02:10:28.143Z,86.95
2023-04-08T02:12:56.185Z,86.37
2023-04-08T02:15:22.834Z,86.31
2023-04-08T02:17:56.242Z,86.17
2023-04-08T02:20:31.544Z,86.17
2023-04-08T02:23:05.103Z,86.48
2023-04-08T02:25:37.573Z,86.13
2023-04-08T02:28:07.230Z,86.21
2023-04-08T02:30:37.166Z,86.32
2023-04-08T02:33:04.840Z,86.26
2023-04-08T02:35:32.898Z,86.36
2023-04-08T02:37:59.488Z,86.37
2023-04-08T02:40:31.723Z,86.26
2023-04-08T02:42:59.280Z,86.20
2023-04-08T02:45:31.302Z,86.21
2023-04-08T02:48:00.615Z,86.14
2023-04-08T02:50:27.781Z,86.07
2023-04-08T02:52:56.403Z,86.43
2023-04-08T02:55:23.199Z,86.30
2023-04-08T02:57:49.760Z,86.38
2023-04-08T03:00:17.267Z,86.76
2023-04-08T03:02:44.005Z,86.85
2023-04-08T03:05:11.114Z,86.90
2023-04-08T03:07:38.005Z,87.07
2023-04-08T03:10:05.008Z,87.28
2023-04-08T03:12:31.686Z,87.14
2023-04-08T03:14:58.127Z,87.05
2023-04-08T03:17:24.743Z,87.29
2023-04-08T03:19:51.237Z,87.14
2023-04-08T03:22:19.280Z,87.52
2023-04-08T03:24:46.347Z,87.51
2023-04-08T03:27:12.820Z,87.54
2023-04-08T03:29:39.382Z,87.52
2023-04-08T03:32:06.494Z,87.53
2023-04-08T03:34:34.678Z,87.69
2023-04-08T03:37:01.835Z,87.40
2023-04-08T03:39:28.460Z,87.45
2023-04-08T03:41:55.148Z,87.67
2023-04-08T03:44:21.551Z,87.50
2023-04-08T03:46:48.057Z,87.86
2023-04-08T03:49:14.565Z,87.86
2023-04-08T03:51:41.025Z,88.34
2023-04-08T03:54:07.959Z,88.51
2023-04-08T03:56:35.422Z,88.91
2023-04-08T03:59:02.173Z,89.11
2023-04-08T04:01:30.170Z,89.19
2023-04-08T04:03:56.761Z,89.32
2023-04-08T04:06:23.413Z,89.46
2023-04-08T04:08:50.468Z,89.44
2023-04-08T04:11:17.333Z,89.61
2023-04-08T04:13:43.836Z,89.51
2023-04-08T04:16:10.343Z,90.09
2023-04-08T04:18:37.101Z,89.72
2023-04-08T04:21:07.037Z,89.76
2023-04-08T04:23:33.740Z,89.99
2023-04-08T04:26:00.293Z,89.89
2023-04-08T04:28:26.739Z,90.33
2023-04-08T04:30:55.273Z,90.56
2023-04-08T04:33:22.883Z,90.32
2023-04-08T04:35:49.445Z,90.92
2023-04-08T04:38:16.177Z,90.72
2023-04-08T04:40:42.681Z,90.71
2023-04-08T04:43:09.209Z,90.67
2023-04-08T04:45:36.100Z,90.93
2023-04-08T04:48:03.688Z,90.78
2023-04-08T04:50:30.543Z,91.23
2023-04-08T04:52:57.174Z,91.17
2023-04-08T04:55:23.649Z,91.64
2023-04-08T04:57:50.407Z,91.60
2023-04-08T05:00:17.120Z,91.59
2023-04-08T05:02:44.007Z,91.90
2023-04-08T05:05:11.039Z,92.42
2023-04-08T05:07:38.254Z,92.26
2023-04-08T05:10:05.961Z,92.17
2023-04-08T05:12:33.423Z,91.97
2023-04-08T05:14:59.943Z,91.88
2023-04-08T05:17:26.643Z,91.84
2023-04-08T05:19:53.652Z,91.77
2023-04-08T05:22:20.182Z,92.14
2023-04-08T05:24:46.613Z,92.14
2023-04-08T05:27:13.031Z,92.67
2023-04-08T05:29:39.614Z,92.13
2023-04-08T05:32:06.197Z,92.26
2023-04-08T05:34:32.659Z,92.13
2023-04-08T05:36:59.182Z,92.65
2023-04-08T05:39:25.787Z,92.57
2023-04-08T05:41:52.305Z,92.76
2023-04-08T05:44:19.027Z,92.55
2023-04-08T05:46:45.876Z,92.54
2023-04-08T05:49:12.614Z,92.22
2023-04-08T05:51:39.570Z,91.84
2023-04-08T05:54:06.034Z,91.49
2023-04-08T05:56:34.884Z,91.29
2023-04-08T05:59:01.468Z,91.05
2023-04-08T06:01:28.059Z,90.71
2023-04-08T06:03:56.611Z,90.88
2023-04-08T06:06:23.660Z,90.90
2023-04-08T06:08:50.555Z,90.82
2023-04-08T06:11:17.293Z,90.89
2023-04-08T06:13:44.014Z,90.94
2023-04-08T06:16:21.340Z,90.59
2023-04-08T06:18:49.117Z,90.18
2023-04-08T06:21:16.204Z,90.29
2023-04-08T06:23:42.729Z,90.55
2023-04-08T06:26:09.403Z,90.65
2023-04-08T06:28:35.961Z,90.70
2023-04-08T06:31:02.440Z,90.58
2023-04-08T06:33:29.211Z,90.66
2023-04-08T06:36:05.449Z,90.35
2023-04-08T06:38:32.484Z,90.04
2023-04-08T06:41:03.806Z,89.75
2023-04-08T06:43:31.207Z,89.48
2023-04-08T06:45:58.079Z,89.04
2023-04-08T06:48:28.736Z,88.64
2023-04-08T06:50:56.656Z,88.27
2023-04-08T06:53:32.800Z,88.27
2023-04-08T06:55:59.933Z,88.17
2023-04-08T06:58:27.256Z,88.52
2023-04-08T07:00:56.033Z,88.36
2023-04-08T07:03:23.621Z,88.45
2023-04-08T07:05:50.459Z,88.84
2023-04-08T07:08:17.200Z,88.80
2023-04-08T07:10:43.690Z,88.93
2023-04-08T07:13:10.507Z,88.54
2023-04-08T07:15:37.533Z,88.35
2023-04-08T07:18:04.819Z,88.01
2023-04-08T07:20:32.403Z,87.46
2023-04-08T07:22:59.172Z,87.63
2023-04-08T07:25:25.732Z,87.05
2023-04-08T07:27:52.975Z,86.91
2023-04-08T07:30:19.884Z,87.21
2023-04-08T07:32:46.729Z,87.30
2023-04-08T07:35:13.821Z,87.97
2023-04-08T07:37:40.552Z,87.98
2023-04-08T07:40:08.329Z,88.31
2023-04-08T07:42:35.066Z,88.38
2023-04-08T07:45:02.647Z,88.40
2023-04-08T07:47:29.663Z,88.76
2023-04-08T07:49:56.547Z,88.03
2023-04-08T07:52:23.344Z,87.92
2023-04-08T07:54:50.219Z,87.74
2023-04-08T07:57:16.872Z,87.70
2023-04-08T07:59:43.610Z,87.51
2023-04-08T08:02:10.122Z,87.51
2023-04-08T08:04:36.969Z,87.25
2023-04-08T08:07:04.046Z,87.26
2023-04-08T08:09:32.110Z,87.08
2023-04-08T08:11:59.007Z,87.26
2023-04-08T08:14:26.794Z,87.60
2023-04-08T08:16:54.343Z,87.45
2023-04-08T08:19:21.440Z,87.43
2023-04-08T08:21:48.518Z,87.48
2023-04-08T08:24:16.485Z,87.17
2023-04-08T08:26:45.107Z,87.22
2023-04-08T08:29:11.882Z,86.67
2023-04-08T08:31:38.885Z,86.99
2023-04-08T08:34:05.907Z,86.23
2023-04-08T08:36:33.533Z,86.11
2023-04-08T08:39:01.954Z,85.66
2023-04-08T08:41:34.000Z,84.86
2023-04-08T08:44:00.785Z,84.74
2023-04-08T08:46:27.542Z,83.61
2023-04-08T08:48:54.569Z,83.23
2023-04-08T08:51:21.651Z,83.07
2023-04-08T08:53:48.291Z,83.24
2023-04-08T08:56:17.930Z,83.55
2023-04-08T08:58:45.279Z,83.42
2023-04-08T09:01:32.726Z,83.26
2023-04-08T09:04:10.424Z,82.93
2023-04-08T09:06:38.213Z,83.17
2023-04-08T09:09:10.462Z,82.66
2023-04-08T09:11:46.222Z,82.54
2023-04-08T09:14:19.062Z,82.13
2023-04-08T09:16:45.944Z,82.26
2023-04-08T09:19:13.345Z,82.13
2023-04-08T09:21:43.564Z,81.79
2023-04-08T09:24:27.163Z,81.91
2023-04-08T09:26:54.045Z,81.95
2023-04-08T09:29:26.460Z,81.64
2023-04-08T09:31:58.416Z,81.43
2023-04-08T09:34:27.361Z,81.34
2023-04-08T09:36:55.750Z,81.76
2023-04-08T09:39:22.975Z,81.89
2023-04-08T09:41:51.838Z,82.04
2023-04-08T09:44:26.591Z,82.66
2023-04-08T09:47:05.734Z,82.05
2023-04-08T09:49:44.827Z,82.15
2023-04-08T09:52:32.247Z,81.22
2023-04-08T09:55:04.626Z,81.52
2023-04-08T09:57:43.973Z,81.84
2023-04-08T10:00:17.799Z,81.68
2023-04-08T10:03:02.000Z,81.71
2023-04-08T10:05:31.061Z,81.47
2023-04-08T10:07:57.894Z,80.86
2023-04-08T10:10:26.286Z,80.76
2023-04-08T10:12:53.370Z,80.10
2023-04-08T10:15:34.542Z,80.03
2023-04-08T10:18:06.690Z,80.42
2023-04-08T10:20:36.182Z,80.26
2023-04-08T10:23:10.417Z,80.33
2023-04-08T10:25:41.679Z,79.83
2023-04-08T10:28:11.370Z,80.11
2023-04-08T10:30:57.622Z,79.98
2023-04-08T10:33:33.462Z,79.78
2023-04-08T10:36:07.148Z,79.34
2023-04-08T10:38:34.048Z,78.92
2023-04-08T10:41:00.870Z,78.86
2023-04-08T10:43:33.108Z,78.72
2023-04-08T10:45:59.767Z,78.47
2023-04-08T10:48:26.327Z,78.45
2023-04-08T10:51:01.104Z,78.73
2023-04-08T10:53:32.410Z,78.59
2023-04-08T10:56:13.008Z,78.41
2023-04-08T10:58:56.497Z,78.79
2023-04-08T11:01:23.707Z,78.78
2023-04-08T11:03:51.360Z,78.86
2023-04-08T11:06:19.415Z,78.56
2023-04-08T11:08:47.167Z,78.45
2023-04-08T11:11:14.722Z,78.93
2023-04-08T11:13:52.139Z,78.95
2023-04-08T11:16:21.567Z,78.69
2023-04-08T11:18:48.416Z,78.52
2023-04-08T11:21:16.136Z,78.38
2023-04-08T11:23:43.243Z,78.60
2023-04-08T11:26:11.212Z,78.39
2023-04-08T11:28:38.521Z,78.25
2023-04-08T11:31:05.973Z,78.31
2023-04-08T11:33:33.367Z,78.13
2023-04-08T11:36:02.195Z,77.64
2023-04-08T11:38:29.363Z,77.65
2023-04-08T11:41:00.078Z,77.42
2023-04-08T11:43:27.348Z,77.49
2023-04-08T11:45:54.230Z,77.69
2023-04-08T11:48:21.358Z,77.99
2023-04-08T11:50:48.033Z,77.98
2023-04-08T11:53:20.102Z,77.99
2023-04-08T11:55:48.400Z,78.02
2023-04-08T11:58:15.924Z,78.41
2023-04-08T12:00:43.717Z,78.20
2023-04-08T12:03:11.276Z,78.46
2023-04-08T12:05:38.131Z,78.03
2023-04-08T12:08:05.049Z,78.34
2023-04-08T12:10:31.795Z,78.03
2023-04-08T12:12:58.294Z,78.07
2023-04-08T12:15:24.844Z,78.12
2023-04-08T12:17:51.439Z,77.77
2023-04-08T12:20:18.767Z,77.61
2023-04-08T12:22:45.521Z,77.81
2023-04-08T12:25:12.065Z,77.83
2023-04-08T12:27:38.599Z,77.85
2023-04-08T12:30:05.793Z,77.50
2023-04-08T12:32:32.387Z,77.95
2023-04-08T12:34:59.168Z,78.56
2023-04-08T12:37:25.848Z,78.59
2023-04-08T12:39:52.417Z,78.58
2023-04-08T12:42:18.887Z,78.33
2023-04-08T12:44:45.649Z,78.65
2023-04-08T12:47:12.388Z,78.89
2023-04-08T12:52:09.033Z,78.29
2023-04-08T12:54:35.629Z,78.07
2023-04-08T12:57:03.075Z,78.12
2023-04-08T12:59:29.750Z,77.80
2023-04-08T13:01:56.621Z,77.64
2023-04-08T13:04:23.378Z,77.78
2023-04-08T13:06:50.160Z,77.32
2023-04-08T13:09:16.650Z,77.65
2023-04-08T13:11:43.372Z,77.94
2023-04-08T13:14:10.146Z,78.04
2023-04-08T13:16:37.305Z,78.48
2023-04-08T13:19:03.764Z,78.21
2023-04-08T13:21:31.237Z,78.18
2023-04-08T13:23:58.239Z,77.77
2023-04-08T13:26:25.009Z,77.61
2023-04-08T13:28:57.418Z,77.66
2023-04-08T13:31:25.390Z,77.32
2023-04-08T13:33:53.279Z,77.24
2023-04-08T13:36:21.335Z,76.74
2023-04-08T13:38:48.064Z,76.40
2023-04-08T13:41:14.747Z,76.11
2023-04-08T13:43:41.833Z,76.05
2023-04-08T13:46:08.728Z,75.22
2023-04-08T13:48:35.366Z,75.81
2023-04-08T13:51:02.290Z,75.76
2023-04-08T13:53:28.871Z,75.20
2023-04-08T13:55:56.026Z,75.39
2023-04-08T13:58:24.417Z,75.31
2023-04-08T14:00:51.685Z,75.15
2023-04-08T14:03:19.331Z,75.09
2023-04-08T14:05:46.524Z,75.05
2023-04-08T14:08:13.657Z,74.84
2023-04-08T14:10:42.085Z,74.76
2023-04-08T14:13:08.958Z,74.11
2023-04-08T14:15:35.700Z,74.37
2023-04-08T14:18:02.828Z,74.99
2023-04-08T14:20:30.123Z,75.37
2023-04-08T14:22:56.719Z,74.79
2023-04-08T14:25:23.978Z,74.80
2023-04-08T14:27:57.901Z,75.00
2023-04-08T14:30:28.849Z,75.37
2023-04-08T14:32:55.717Z,75.54
2023-04-08T14:35:22.983Z,75.60
2023-04-08T14:37:49.862Z,75.76
2023-04-08T14:40:16.702Z,75.80
2023-04-08T14:42:45.641Z,75.55
2023-04-08T14:45:13.253Z,75.65
2023-04-08T14:47:39.792Z,75.79
2023-04-08T14:50:07.613Z,75.70
2023-04-08T14:52:34.372Z,75.77
2023-04-08T14:55:01.342Z,75.99
2023-04-08T14:57:28.245Z,76.30
2023-04-08T14:59:54.854Z,76.12
2023-04-08T15:02:21.462Z,76.16
2023-04-08T15:04:48.265Z,75.97
2023-04-08T15:07:15.084Z,76.10
2023-04-08T15:09:41.903Z,75.80
2023-04-08T15:12:08.499Z,75.88
2023-04-08T15:14:35.238Z,75.87
2023-04-08T15:17:01.749Z,75.95
2023-04-08T15:19:28.366Z,76.24
2023-04-08T15:21:55.499Z,76.54
2023-04-08T15:24:22.130Z,76.46
2023-04-08T15:26:48.535Z,76.61
2023-04-08T15:29:15.560Z,76.80
2023-04-08T15:31:42.271Z,76.78
2023-04-08T15:34:09.014Z,76.68
2023-04-08T15:36:37.364Z,76.77
2023-04-08T15:39:04.359Z,76.96
2023-04-08T15:41:32.327Z,77.53
2023-04-08T15:43:59.161Z,78.23
2023-04-08T15:46:25.970Z,78.47
2023-04-08T15:48:53.066Z,79.07
2023-04-08T15:51:20.337Z,79.37
2023-04-08T15:53:47.156Z,79.80
2023-04-08T15:56:16.358Z,80.50
2023-04-08T15:58:43.896Z,80.69
2023-04-08T16:01:10.765Z,81.45
2023-04-08T16:03:37.684Z,81.62
2023-04-08T16:06:06.069Z,81.79
2023-04-08T16:08:34.799Z,82.18
2023-04-08T16:11:03.396Z,82.85
2023-04-08T16:13:30.875Z,82.57
2023-04-08T16:15:58.571Z,83.07
2023-04-08T16:18:26.102Z,83.32
2023-04-08T16:20:52.874Z,84.03
2023-04-08T16:23:19.932Z,84.00
2023-04-08T16:25:46.947Z,83.93
2023-04-08T16:28:13.851Z,84.13
2023-04-08T16:30:43.500Z,83.81
2023-04-08T16:33:13.551Z,84.43
2023-04-08T16:35:40.303Z,84.40
2023-04-08T16:38:06.952Z,84.54
2023-04-08T16:40:34.567Z,84.42
2023-04-08T16:43:01.963Z,84.78
2023-04-08T16:45:29.990Z,85.05
2023-04-08T16:47:57.342Z,85.00
2023-04-08T16:50:24.627Z,85.19
2023-04-08T16:52:51.657Z,85.29
2023-04-08T16:55:19.356Z,85.20
2023-04-08T16:57:46.357Z,85.45
2023-04-08T17:00:13.656Z,85.59
2023-04-08T17:02:40.518Z,85.47
2023-04-08T17:05:08.092Z,85.52
2023-04-08T17:07:34.738Z,85.62
2023-04-08T17:10:01.221Z,85.43
2023-04-08T17:12:27.762Z,85.44
2023-04-08T17:14:54.213Z,85.24
2023-04-08T17:17:20.741Z,84.96
2023-04-08T17:19:47.405Z,84.89
2023-04-08T17:22:13.991Z,84.91
2023-04-08T17:24:40.646Z,84.72
2023-04-08T17:27:07.286Z,84.90
2023-04-08T17:29:33.855Z,84.54
2023-04-08T17:32:00.579Z,84.56
2023-04-08T17:34:27.360Z,84.81
2023-04-08T17:36:53.903Z,84.81
2023-04-08T17:39:20.503Z,84.72
2023-04-08T17:41:47.317Z,84.89
2023-04-08T17:44:13.898Z,85.00
2023-04-08T17:46:40.967Z,85.26
2023-04-08T17:49:07.611Z,84.88
2023-04-08T17:51:34.361Z,85.42
2023-04-08T17:54:00.965Z,85.41
2023-04-08T17:56:28.246Z,85.26
2023-04-08T17:58:54.792Z,85.55
2023-04-08T18:01:22.627Z,85.44
2023-04-08T18:03:51.716Z,85.95
2023-04-08T18:06:21.543Z,85.83
2023-04-08T18:08:48.422Z,85.68
2023-04-08T18:11:14.970Z,85.68
2023-04-08T18:13:41.622Z,86.16
2023-04-08T18:16:17.179Z,86.12
2023-04-08T18:18:44.159Z,85.97
2023-04-08T18:21:10.837Z,86.18
2023-04-08T18:23:40.225Z,86.32
2023-04-08T18:26:07.183Z,86.03
2023-04-08T18:28:33.934Z,85.92
2023-04-08T18:31:00.875Z,85.85
2023-04-08T18:33:27.445Z,85.76
2023-04-08T18:35:54.522Z,85.48
2023-04-08T18:38:21.859Z,85.67
2023-04-08T18:40:48.349Z,85.33
2023-04-08T18:43:14.790Z,84.85
2023-04-08T18:45:41.453Z,84.99
2023-04-08T18:48:09.053Z,84.91
2023-04-08T18:50:35.469Z,84.67
2023-04-08T18:53:02.268Z,84.41
2023-04-08T18:55:28.663Z,84.24
2023-04-08T18:57:55.271Z,84.27
2023-04-08T19:00:21.993Z,84.30
2023-04-08T19:02:48.592Z,84.24
2023-04-08T19:05:15.738Z,83.77
2023-04-08T19:07:42.223Z,83.60
2023-04-08T19:10:08.964Z,83.55
2023-04-08T19:12:35.511Z,83.69
2023-04-08T19:15:04.138Z,83.87
2023-04-08T19:17:31.088Z,83.93
2023-04-08T19:19:57.636Z,84.02
2023-04-08T19:22:25.131Z,84.09
2023-04-08T19:24:54.423Z,84.18
2023-04-08T19:27:21.568Z,84.36
2023-04-08T19:29:48.000Z,84.50
2023-04-08T19:32:14.417Z,84.76
2023-04-08T19:34:42.384Z,85.10
2023-04-08T19:37:08.921Z,85.30
2023-04-08T19:39:35.449Z,85.34
2023-04-08T19:42:01.997Z,85.21
2023-04-08T19:44:28.470Z,85.45
2023-04-08T19:46:57.561Z,85.80
2023-04-08T19:49:25.046Z,85.98
2023-04-08T19:51:51.881Z,86.36
2023-04-08T19:54:18.497Z,86.56
2023-04-08T19:56:45.677Z,86.75
2023-04-08T19:59:12.316Z,87.08
2023-04-08T20:01:40.049Z,87.45
2023-04-08T20:04:07.064Z,87.82
2023-04-08T20:06:34.809Z,88.00
2023-04-08T20:09:05.565Z,88.32
2023-04-08T20:11:35.290Z,88.74
2023-04-08T20:14:03.733Z,88.72
2023-04-08T20:16:30.229Z,89.09
2023-04-08T20:18:56.737Z,89.55
2023-04-08T20:21:23.485Z,89.77
2023-04-08T20:23:49.999Z,90.15
2023-04-08T20:26:16.856Z,90.47
2023-04-08T20:28:44.929Z,90.98
2023-04-08T20:31:11.626Z,91.10
2023-04-08T20:33:43.479Z,91.32
2023-04-08T20:36:12.448Z,91.33
2023-04-08T20:38:39.703Z,91.31
2023-04-08T20:41:07.141Z,91.77
2023-04-08T20:43:34.050Z,92.13
2023-04-08T20:46:01.048Z,92.54
2023-04-08T20:48:29.317Z,92.87
2023-04-08T20:50:56.126Z,93.08
2023-04-08T20:53:23.665Z,92.95
2023-04-08T20:55:50.295Z,92.73
2023-04-08T20:58:16.810Z,92.78
2023-04-08T21:00:43.503Z,92.72
2023-04-08T21:03:10.157Z,92.79
2023-04-08T21:05:37.881Z,92.83
2023-04-08T21:08:04.431Z,92.95
2023-04-08T21:10:30.884Z,92.89
2023-04-08T21:12:57.488Z,92.69
2023-04-08T21:15:24.151Z,92.81
2023-04-08T21:17:51.006Z,92.78
2023-04-08T21:20:17.686Z,92.75
2023-04-08T21:22:44.316Z,92.99
2023-04-08T21:25:11.460Z,93.30
2023-04-08T21:27:38.173Z,93.55
2023-04-08T21:30:05.226Z,93.74
2023-04-08T21:32:32.484Z,94.14
2023-04-08T21:34:58.981Z,94.81
2023-04-08T21:37:25.527Z,95.10
2023-04-08T21:39:53.853Z,95.61
2023-04-08T21:46:08.788Z,96.39
2023-04-08T21:48:35.512Z,96.76
2023-04-08T21:51:02.160Z,96.74
2023-04-08T21:53:28.933Z,96.68
2023-04-08T21:55:55.637Z,96.91
2023-04-08T21:58:22.162Z,96.89
2023-04-08T22:00:49.298Z,96.77
2023-04-08T22:03:16.069Z,96.56
2023-04-08T22:05:42.536Z,96.52
2023-04-08T22:08:08.958Z,96.24
2023-04-08T22:10:35.455Z,96.28
2023-04-08T22:13:01.934Z,96.45
2023-04-08T22:15:28.715Z,96.45
2023-04-08T22:17:56.038Z,96.47
2023-04-08T22:20:23.168Z,96.27
2023-04-08T22:22:49.926Z,96.13
2023-04-08T22:25:16.554Z,96.55
2023-04-08T22:27:43.204Z,96.52
2023-04-08T22:30:10.377Z,96.61
2023-04-08T22:32:37.070Z,96.87
2023-04-08T22:35:03.858Z,97.32
2023-04-08T22:37:31.911Z,97.69
2023-04-08T22:40:02.161Z,98.13
2023-04-08T22:42:29.399Z,98.56
2023-04-08T22:44:55.897Z,99.10
2023-04-08T22:47:22.424Z,99.58
2023-04-08T22:49:48.856Z,99.58
2023-04-08T22:52:15.571Z,99.75
2023-04-08T22:54:42.260Z,99.65
2023-04-08T22:57:09.165Z,99.79
2023-04-08T22:59:35.705Z,99.74
2023-04-08T23:02:02.462Z,99.90
2023-04-08T23:04:29.153Z,99.95
2023-04-08T23:06:56.196Z,99.94
2023-04-08T23:09:24.653Z,99.99
2023-04-08T23:11:51.251Z,99.93
2023-04-08T23:14:17.878Z,99.95
2023-04-08T23:16:44.342Z,99.78
2023-04-08T23:19:11.548Z,99.77
2023-04-08T23:21:38.114Z,99.79
2023-04-08T23:24:04.934Z,99.98
2023-04-08T23:26:31.559Z,99.98
2023-04-08T23:28:58.011Z,99.96
2023-04-08T23:31:24.785Z,99.83
2023-04-08T23:33:51.303Z,99.88
2023-04-08T23:36:17.884Z,99.86
2023-04-08T23:38:44.493Z,99.87
2023-04-08T23:41:11.236Z,99.92
2023-04-08T23:43:37.701Z,100.00
2023-04-08T23:46:04.251Z,99.99
2023-04-08T23:48:30.818Z,100.00
2023-04-08T23:50:57.280Z,100.00
2023-04-08T23:53:24.042Z,100.00
2023-04-08T23:55:50.548Z,100.00
2023-04-08T23:58:17.187Z,100.00
